フランクフルト の空港の天気 - METARとTAF

フランクフルト国際空港 ( EDDF / FRA ) - ドイツ フランクフルト・アム・マイン
飛行場実況気象(Metar)
観測時間09/23 14:50 CEST (09/23 12:50 UTC)
風向・風速北北西 3m/s
視程10km以上
天気現象
少しの雲 雲底高度 1160m
全天の4割程度の雲 雲底高度 2740m
気温18℃
湿度64%
気圧1022hPa
METAREDDF 231250Z 33006KT 270V040 9999 FEW038 SCT090 18/11 Q1022 NOSIG
過去の天気等 Google飛行場航空写真 Wunderground天気予報

過去48時間のMETAR

飛行場予報(TAF)
発表時間: 9/23 13:00 CEST (9/23 11:00 UTC)
予報対象時間: 23日14時 CEST ~ 24日20時 CEST
風向・風速北北東 3m/s
視程10km以上
少しの雲 雲底高度 910m
23日15時 CEST ~ 23日18時 CEST に 確率 30% で一時的に
天気現象しゅう雨
全天の4割程度の塔状積雲 雲底高度 910m
24日14時 CEST ~ 24日20時 CEST に 確率 30% で一時的に
天気現象しゅう雨
全天の4割程度の塔状積雲 雲底高度 910m
TAF EDDF 231100Z 2312/2418 02005KT 9999 FEW030
PROB30 TEMPO 2313/2316 SHRA SCT030TCU
PROB30 TEMPO 2412/2418 SHRA SCT030TCU